Ontario, Indiana
Current Conditions -  °F | °C
As of 5:15 PM on Saturday 20 Dec 2014 (Local Time) from KIRS Reporting Station
Light Snow Light Snow  
Wind Chill: 28°   Ceiling: 2100
Heat Index: 28°   Visibility: 5mi
Dew Point: 27°   Wind: 3mph
Humidity: 93%   Direction: 280°W
Pressure: 30.26"   Gusts: NA
Location:  41.7293°N, 85.4292°W
Report Text: KIRS 202215Z AUTO 28003KT 5SM -SN OVC021 M02/M03 A3026 RMK AO2
Loading
Personal Weather Stations






























Interactive Weather Map New forecast layout! Learn more

10-Day Weather Forecast

Advertisements
Track Severe Weather on mobile